createdAt,value
2022-08-23T00:00:49.063Z,19.51
2022-08-23T00:05:52.035Z,19.51
2022-08-23T00:10:53.383Z,19.53
2022-08-23T00:15:55.085Z,19.53
2022-08-23T00:20:57.085Z,19.54
2022-08-23T00:26:01.687Z,19.52
2022-08-23T00:31:03.390Z,19.48
2022-08-23T00:36:04.803Z,19.47
2022-08-23T00:41:06.206Z,19.43
2022-08-23T00:46:41.519Z,19.42
2022-08-23T00:51:57.399Z,19.42
2022-08-23T00:57:00.077Z,19.41
2022-08-23T01:02:02.117Z,19.34
2022-08-23T01:07:06.037Z,19.29
2022-08-23T01:12:07.443Z,19.28
2022-08-23T01:17:12.573Z,19.33
2022-08-23T01:22:21.761Z,19.36
2022-08-23T01:27:23.285Z,19.26
2022-08-23T01:32:25.639Z,19.16
2022-08-23T01:37:27.144Z,19.08
2022-08-23T01:42:28.882Z,18.97
2022-08-23T01:47:31.661Z,18.86
2022-08-23T01:52:34.622Z,18.82
2022-08-23T01:57:36.150Z,18.79
2022-08-23T02:02:40.634Z,18.81
2022-08-23T02:07:42.453Z,18.84
2022-08-23T02:12:44.220Z,18.86
2022-08-23T02:17:48.868Z,18.83
2022-08-23T02:22:50.224Z,18.80
2022-08-23T02:27:51.596Z,18.73
2022-08-23T02:32:52.987Z,18.65
2022-08-23T02:37:55.220Z,18.66
2022-08-23T02:42:56.817Z,18.70
2022-08-23T02:47:58.606Z,18.73
2022-08-23T02:53:05.388Z,18.75
2022-08-23T02:58:08.197Z,18.75
2022-08-23T03:03:09.853Z,18.75
2022-08-23T03:08:11.733Z,18.74
2022-08-23T03:13:21.058Z,18.77
2022-08-23T03:18:24.371Z,18.79
2022-08-23T03:23:26.910Z,18.74
2022-08-23T03:28:29.140Z,18.75
2022-08-23T03:33:30.473Z,18.80
2022-08-23T03:38:32.117Z,18.82
2022-08-23T03:43:34.155Z,18.88
2022-08-23T03:48:35.659Z,19.00
2022-08-23T03:53:37.109Z,19.07
2022-08-23T03:58:39.704Z,19.11
2022-08-23T04:03:41.513Z,19.11
2022-08-23T04:08:43.669Z,19.10
2022-08-23T04:13:45.057Z,19.00
2022-08-23T04:18:46.946Z,18.87
2022-08-23T04:23:50.749Z,18.86
2022-08-23T04:28:52.693Z,18.84
2022-08-23T04:33:58.803Z,18.78
2022-08-23T04:39:02.723Z,18.78
2022-08-23T04:44:05.519Z,18.81
2022-08-23T04:49:07.802Z,18.81
2022-08-23T04:54:09.566Z,18.79
2022-08-23T04:59:37.208Z,18.79
2022-08-23T05:04:38.811Z,18.81
2022-08-23T05:09:40.281Z,18.82
2022-08-23T05:14:41.725Z,18.85
2022-08-23T05:19:49.232Z,18.87
2022-08-23T05:24:50.616Z,18.89
2022-08-23T05:29:54.244Z,18.88
2022-08-23T05:34:55.759Z,18.86
2022-08-23T05:39:57.202Z,18.85
2022-08-23T05:44:59.836Z,18.85
2022-08-23T05:50:01.781Z,18.83
2022-08-23T05:55:07.348Z,18.81
2022-08-23T06:00:15.503Z,18.84
2022-08-23T06:05:29.348Z,18.90
2022-08-23T06:10:36.705Z,18.93
2022-08-23T06:15:51.461Z,18.95
2022-08-23T06:21:01.021Z,18.93
2022-08-23T06:26:14.907Z,18.95
2022-08-23T06:31:39.169Z,18.96
2022-08-23T06:36:44.757Z,18.99
2022-08-23T06:42:01.518Z,19.05
2022-08-23T06:47:05.651Z,19.07
2022-08-23T06:52:09.173Z,19.12
2022-08-23T06:57:25.101Z,19.14
2022-08-23T07:02:52.247Z,19.19
2022-08-23T07:08:12.068Z,19.25
2022-08-23T07:13:18.374Z,19.33
2022-08-23T07:18:20.590Z,19.41
2022-08-23T07:23:23.229Z,19.44
2022-08-23T07:28:25.064Z,19.44
2022-08-23T07:33:26.881Z,19.47
2022-08-23T07:38:39.826Z,19.52
2022-08-23T07:43:42.063Z,19.55
2022-08-23T07:48:53.963Z,19.58
2022-08-23T07:54:04.031Z,19.63
2022-08-23T07:59:06.836Z,19.64
2022-08-23T08:04:12.552Z,19.69
2022-08-23T08:09:16.798Z,19.78
2022-08-23T08:14:18.750Z,19.84
2022-08-23T08:19:26.339Z,19.88
2022-08-23T08:24:57.620Z,19.91
2022-08-23T08:29:59.112Z,19.95
2022-08-23T08:35:00.534Z,19.99
2022-08-23T08:40:03.528Z,20.04
2022-08-23T08:45:37.359Z,20.14
2022-08-23T08:50:41.372Z,20.19
2022-08-23T08:55:49.332Z,20.42
2022-08-23T09:00:56.492Z,20.71
2022-08-23T09:06:16.079Z,20.84
2022-08-23T09:11:17.514Z,20.92
2022-08-23T09:16:32.647Z,20.97
2022-08-23T09:21:45.865Z,21.02
2022-08-23T09:26:47.674Z,21.05
2022-08-23T09:31:53.951Z,21.05
2022-08-23T09:37:17.735Z,21.09
2022-08-23T09:42:27.540Z,21.16
2022-08-23T09:47:44.380Z,21.32
2022-08-23T09:52:47.773Z,21.40
2022-08-23T09:57:49.459Z,21.54
2022-08-23T10:02:57.512Z,21.71
2022-08-23T10:08:02.982Z,21.79
2022-08-23T10:13:06.339Z,21.83
2022-08-23T10:18:19.590Z,21.90
2022-08-23T10:23:41.485Z,22.01
2022-08-23T10:29:09.795Z,22.04
2022-08-23T10:34:30.153Z,22.08
2022-08-23T10:39:32.563Z,22.19
2022-08-23T10:44:35.925Z,22.26
2022-08-23T10:49:40.218Z,22.32
2022-08-23T10:54:48.970Z,22.24
2022-08-23T10:59:56.135Z,22.14
2022-08-23T11:05:03.916Z,22.04
2022-08-23T11:10:26.704Z,22.01
2022-08-23T11:15:37.200Z,22.19
2022-08-23T11:20:49.825Z,22.48
2022-08-23T11:25:56.068Z,22.48
2022-08-23T11:30:57.693Z,22.33
2022-08-23T11:36:09.178Z,22.18
2022-08-23T11:41:21.018Z,22.12
2022-08-23T11:46:25.777Z,22.05
2022-08-23T11:51:37.292Z,22.02
2022-08-23T11:56:38.674Z,22.08
2022-08-23T12:01:40.661Z,22.08
2022-08-23T12:06:55.775Z,22.07
2022-08-23T12:11:57.102Z,22.17
2022-08-23T12:17:03.635Z,22.24
2022-08-23T12:22:07.768Z,22.28
2022-08-23T12:27:14.878Z,22.34
2022-08-23T12:32:21.154Z,22.36
2022-08-23T12:37:34.020Z,22.40
2022-08-23T12:42:37.067Z,22.46
2022-08-23T12:47:43.122Z,22.49
2022-08-23T12:52:55.335Z,22.44
2022-08-23T12:57:58.079Z,22.44
2022-08-23T13:03:12.127Z,22.46
2022-08-23T13:08:19.778Z,22.46
2022-08-23T13:13:28.844Z,22.43
2022-08-23T13:18:41.119Z,22.45
2022-08-23T13:23:42.452Z,22.44
2022-08-23T13:28:59.366Z,22.46
2022-08-23T13:34:00.725Z,22.47
2022-08-23T13:39:05.687Z,22.46
2022-08-23T13:44:08.344Z,22.46
2022-08-23T13:49:17.732Z,22.48
2022-08-23T13:54:19.165Z,22.50
2022-08-23T13:59:38.214Z,22.47
2022-08-23T14:04:40.242Z,22.44
2022-08-23T14:09:42.420Z,22.41
2022-08-23T14:14:44.750Z,22.43
2022-08-23T14:25:08.967Z,22.52
2022-08-23T14:30:12.015Z,22.60
2022-08-23T14:35:13.375Z,22.65
2022-08-23T14:40:15.410Z,22.71
2022-08-23T14:45:17.460Z,22.79
2022-08-23T14:50:18.860Z,22.82
2022-08-23T14:55:24.741Z,22.89
2022-08-23T15:00:26.628Z,23.07
2022-08-23T15:05:28.015Z,23.18
2022-08-23T15:15:51.117Z,23.24
2022-08-23T15:20:52.686Z,23.24
2022-08-23T15:25:54.722Z,23.22
2022-08-23T15:30:56.183Z,23.16
2022-08-23T15:35:57.846Z,23.23
2022-08-23T15:41:00.434Z,23.25
2022-08-23T15:46:09.156Z,23.19
2022-08-23T15:51:10.943Z,23.19
2022-08-23T15:56:20.288Z,23.24
2022-08-23T16:01:24.709Z,23.26
2022-08-23T16:06:27.304Z,23.32
2022-08-23T16:11:28.638Z,23.34
2022-08-23T16:16:33.154Z,23.38
2022-08-23T16:21:34.606Z,23.42
2022-08-23T16:26:38.706Z,23.35
2022-08-23T16:31:43.506Z,23.30
2022-08-23T16:36:46.637Z,23.23
2022-08-23T16:41:47.960Z,23.29
2022-08-23T16:46:51.594Z,23.33
2022-08-23T16:51:53.015Z,23.40
2022-08-23T16:56:54.478Z,23.58
2022-08-23T17:01:58.302Z,24.27
2022-08-23T17:06:59.878Z,24.78
2022-08-23T17:12:02.146Z,24.60
2022-08-23T17:17:03.544Z,24.32
2022-08-23T17:22:04.926Z,24.11
2022-08-23T17:27:06.893Z,23.96
2022-08-23T17:32:09.733Z,23.82
2022-08-23T17:37:19.124Z,23.69
2022-08-23T17:42:21.313Z,23.52
2022-08-23T17:47:22.716Z,23.41
2022-08-23T17:52:26.181Z,23.30
2022-08-23T17:57:27.549Z,23.19
2022-08-23T18:02:31.671Z,23.06
2022-08-23T18:07:33.153Z,22.91
2022-08-23T18:12:34.597Z,22.77
2022-08-23T18:17:38.645Z,22.69
2022-08-23T18:22:40.166Z,22.63
2022-08-23T18:28:00.328Z,22.57
2022-08-23T18:33:02.118Z,22.48
2022-08-23T18:38:03.512Z,22.43
2022-08-23T18:43:05.069Z,22.40
2022-08-23T18:48:06.408Z,22.34
2022-08-23T18:53:07.934Z,22.29
2022-08-23T18:58:09.345Z,22.21
2022-08-23T19:03:12.165Z,22.17
2022-08-23T19:08:13.993Z,22.14
2022-08-23T19:13:16.521Z,22.17
2022-08-23T19:18:17.824Z,22.14
2022-08-23T19:23:21.241Z,22.13
2022-08-23T19:28:23.831Z,22.12
2022-08-23T19:33:25.210Z,22.12
2022-08-23T19:38:27.739Z,22.13
2022-08-23T19:43:29.168Z,22.14
2022-08-23T19:48:33.044Z,22.11
2022-08-23T19:53:34.979Z,22.10
2022-08-23T19:58:36.373Z,22.08
2022-08-23T20:03:37.699Z,22.06
2022-08-23T20:08:39.195Z,22.02
2022-08-23T20:13:41.141Z,21.99
2022-08-23T20:18:43.097Z,21.95
2022-08-23T20:24:03.683Z,21.92
2022-08-23T20:29:05.466Z,21.88
2022-08-23T20:34:08.352Z,21.86
2022-08-23T20:39:10.742Z,21.84
2022-08-23T20:44:12.125Z,21.82
2022-08-23T20:49:13.461Z,21.80
2022-08-23T20:54:14.841Z,21.77
2022-08-23T20:59:16.567Z,21.74
2022-08-23T21:04:18.719Z,21.70
2022-08-23T21:09:22.500Z,21.64
2022-08-23T21:14:24.453Z,21.61
2022-08-23T21:19:25.884Z,21.61
2022-08-23T21:24:27.280Z,21.60
2022-08-23T21:29:28.601Z,21.59
2022-08-23T21:34:29.992Z,21.54
2022-08-23T21:39:31.353Z,21.50
2022-08-23T21:44:32.681Z,21.49
2022-08-23T21:49:35.077Z,21.45
2022-08-23T21:54:39.207Z,21.43
2022-08-23T21:59:44.223Z,21.38
2022-08-23T22:04:45.763Z,21.33
2022-08-23T22:09:47.241Z,21.29
2022-08-23T22:14:48.612Z,21.27
2022-08-23T22:19:51.097Z,21.27
2022-08-23T22:24:53.931Z,21.27
2022-08-23T22:29:55.470Z,21.26
2022-08-23T22:34:58.150Z,21.22
2022-08-23T22:39:59.530Z,21.13
2022-08-23T22:45:01.138Z,21.09
2022-08-23T22:50:03.481Z,21.06
2022-08-23T22:55:05.283Z,21.02
2022-08-23T23:00:11.181Z,20.99
2022-08-23T23:05:12.770Z,20.98
2022-08-23T23:10:15.060Z,20.94
2022-08-23T23:15:16.426Z,20.93
2022-08-23T23:20:36.585Z,20.90
2022-08-23T23:25:37.987Z,20.88
2022-08-23T23:30:39.422Z,20.90
2022-08-23T23:35:42.655Z,20.90
2022-08-23T23:40:44.225Z,20.86
2022-08-23T23:45:45.657Z,20.85
2022-08-23T23:50:47.100Z,20.79
2022-08-23T23:55:48.721Z,20.72
